Deep Devocean — WDJ3447 — position and weather

sailwx.info

Track history (hours):
 
Tides and Currents Weather Stations Pressure Air Temp Water Temp Dewpoint Dewpoint Depression Visibility Wind Speed Wind Dir Waves Ship Positions

Deep Devocean

Owner: Western Lake Marine LLC, Santa Rosa Beach, FL. More information available from US FCC via Universal Licensing System and Coast Guard Vessel Documentation Center.

Last reported at 2017-Sep-04 18:38 UTC. Time now 2017-Sep-22 08:15 UTC.
Position N 18°17' W 064°53'.
Warning: this ship's position is 17 days out of date.

Length 28 m.

Type: Pleasure craft. MMSI: 367743310.

Date/timePositionNaut miles runAvg speedWind from/ knotsBaromVisibWave heightAir tempDewpointWater temp
2017-Sep-04 18:38N 18°17' W 064°53'210.9
2017-Sep-04 18:29N 18°18' W 064°52'2 0.1
2017-Sep-03 22:11N 18°20' W 064°50'421.8
2017-Sep-03 22:00N 18°24' W 064°51'1122.8
2017-Sep-03 21:30N 18°35' W 064°50'16 0.7
2017-Sep-02 22:07N 18°32' W 064°34'322.0
2017-Sep-02 21:59N 18°34' W 064°37'3 0.1
2017-Sep-01 21:57N 18°32' W 064°34'16 2.0
2017-Sep-01 13:53N 18°39' W 064°50'22 1.5
2017-Aug-31 22:44N 18°25' W 064°31'520.3
2017-Aug-31 22:30N 18°23' W 064°35'4 3.3
2017-Aug-31 21:24N 18°20' W 064°38'0 0.0
2017-Aug-31 20:50N 18°20' W 064°38'411.6
2017-Aug-31 20:30N 18°22' W 064°41'2 3.1
2017-Aug-31 20:00N 18°23' W 064°42'714.6
2017-Aug-31 19:30N 18°20' W 064°49'6 2.9
2017-Aug-31 17:22N 18°20' W 064°56'2 6.0
2017-Aug-31 17:00N 18°18' W 064°54'4 6.3
2017-Aug-31 16:21N 18°19' W 064°50'1 0.4
2017-Aug-31 13:24N 18°20' W 064°51'0 0.0
2017-Aug-31 13:00N 18°20' W 064°51'0 0.0
2017-Aug-29 17:50N 18°20' W 064°51'  
2017-Aug-25 21:38N 18°20' W 064°51'0 0.0
2017-Aug-25 21:29N 18°20' W 064°51'0 0.0
2017-Aug-25 19:41N 18°20' W 064°51'0 0.0
2017-Aug-25 19:29N 18°20' W 064°51'0 0.0
2017-Aug-25 18:59N 18°20' W 064°51'  
Track history (hours):
 
Tides and Currents Weather Stations Pressure Air Temp Water Temp Dewpoint Dewpoint Depression Visibility Wind Speed Wind Dir Waves Ship Positions

Deep Devocean

Owner: Western Lake Marine LLC, Santa Rosa Beach, FL. More information available from US FCC via Universal Licensing System and Coast Guard Vessel Documentation Center.

Last reported at 2017-Sep-04 18:38 UTC. Time now 2017-Sep-22 08:15 UTC.
Position N 18°17' W 064°53'.
Warning: this ship's position is 17 days out of date.

Length 28 m.

Type: Pleasure craft. MMSI: 367743310.

Date/timePositionNaut miles runAvg speedWind from/ knotsBaromVisibWave heightAir tempDewpointWater temp
2017-Sep-04 18:38N 18°17' W 064°53'210.9
2017-Sep-04 18:29N 18°18' W 064°52'2 0.1
2017-Sep-03 22:11N 18°20' W 064°50'421.8
2017-Sep-03 22:00N 18°24' W 064°51'1122.8
2017-Sep-03 21:30N 18°35' W 064°50'16 0.7
2017-Sep-02 22:07N 18°32' W 064°34'322.0
2017-Sep-02 21:59N 18°34' W 064°37'3 0.1
2017-Sep-01 21:57N 18°32' W 064°34'16 2.0
2017-Sep-01 13:53N 18°39' W 064°50'22 1.5
2017-Aug-31 22:44N 18°25' W 064°31'520.3
2017-Aug-31 22:30N 18°23' W 064°35'4 3.3
2017-Aug-31 21:24N 18°20' W 064°38'0 0.0
2017-Aug-31 20:50N 18°20' W 064°38'411.6
2017-Aug-31 20:30N 18°22' W 064°41'2 3.1
2017-Aug-31 20:00N 18°23' W 064°42'714.6
2017-Aug-31 19:30N 18°20' W 064°49'6 2.9
2017-Aug-31 17:22N 18°20' W 064°56'2 6.0
2017-Aug-31 17:00N 18°18' W 064°54'4 6.3
2017-Aug-31 16:21N 18°19' W 064°50'1 0.4
2017-Aug-31 13:24N 18°20' W 064°51'0 0.0
2017-Aug-31 13:00N 18°20' W 064°51'0 0.0
2017-Aug-29 17:50N 18°20' W 064°51'  
2017-Aug-25 21:38N 18°20' W 064°51'0 0.0
2017-Aug-25 21:29N 18°20' W 064°51'0 0.0
2017-Aug-25 19:41N 18°20' W 064°51'0 0.0
2017-Aug-25 19:29N 18°20' W 064°51'0 0.0
2017-Aug-25 18:59N 18°20' W 064°51'  

Dump ship's entire track history